sensor_id;sensor_type;location;lat;lon;timestamp;P1;durP1;ratioP1;P2;durP2;ratioP2
5961;SDS011;3007;50.770;0.250;2023-11-22T00:01:52;11.50;;;2.93;;
5961;SDS011;3007;50.770;0.250;2023-11-22T00:04:19;9.67;;;2.93;;
5961;SDS011;3007;50.770;0.250;2023-11-22T00:06:46;12.00;;;3.63;;
5961;SDS011;3007;50.770;0.250;2023-11-22T00:09:13;5.17;;;2.47;;
5961;SDS011;3007;50.770;0.250;2023-11-22T00:11:40;13.40;;;3.13;;
5961;SDS011;3007;50.770;0.250;2023-11-22T00:14:08;10.73;;;3.27;;
5961;SDS011;3007;50.770;0.250;2023-11-22T00:16:35;8.33;;;2.30;;
5961;SDS011;3007;50.770;0.250;2023-11-22T00:19:05;11.33;;;2.67;;
5961;SDS011;3007;50.770;0.250;2023-11-22T00:21:32;7.50;;;2.23;;
5961;SDS011;3007;50.770;0.250;2023-11-22T00:24:00;7.97;;;2.00;;
5961;SDS011;3007;50.770;0.250;2023-11-22T00:26:27;10.57;;;2.57;;
5961;SDS011;3007;50.770;0.250;2023-11-22T00:28:53;11.00;;;2.53;;
5961;SDS011;3007;50.770;0.250;2023-11-22T00:31:22;11.83;;;2.80;;
5961;SDS011;3007;50.770;0.250;2023-11-22T00:33:48;7.37;;;2.70;;
5961;SDS011;3007;50.770;0.250;2023-11-22T00:36:16;8.37;;;2.63;;
5961;SDS011;3007;50.770;0.250;2023-11-22T00:38:43;11.20;;;3.20;;
5961;SDS011;3007;50.770;0.250;2023-11-22T00:41:10;9.60;;;3.03;;
5961;SDS011;3007;50.770;0.250;2023-11-22T00:43:39;10.80;;;2.43;;
5961;SDS011;3007;50.770;0.250;2023-11-22T00:46:06;10.47;;;2.67;;
5961;SDS011;3007;50.770;0.250;2023-11-22T00:48:34;11.07;;;2.97;;
5961;SDS011;3007;50.770;0.250;2023-11-22T00:51:01;7.40;;;2.70;;
5961;SDS011;3007;50.770;0.250;2023-11-22T00:53:33;9.00;;;2.90;;
5961;SDS011;3007;50.770;0.250;2023-11-22T00:56:01;11.03;;;3.70;;
5961;SDS011;3007;50.770;0.250;2023-11-22T00:58:27;16.30;;;3.10;;
5961;SDS011;3007;50.770;0.250;2023-11-22T01:00:54;14.00;;;4.10;;
5961;SDS011;3007;50.770;0.250;2023-11-22T01:03:21;8.63;;;3.70;;
5961;SDS011;3007;50.770;0.250;2023-11-22T01:05:49;10.50;;;2.77;;
5961;SDS011;3007;50.770;0.250;2023-11-22T01:08:16;8.27;;;3.23;;
5961;SDS011;3007;50.770;0.250;2023-11-22T01:10:44;13.77;;;2.93;;
5961;SDS011;3007;50.770;0.250;2023-11-22T01:13:11;11.17;;;2.70;;
5961;SDS011;3007;50.770;0.250;2023-11-22T01:15:39;9.70;;;2.53;;
5961;SDS011;3007;50.770;0.250;2023-11-22T01:18:06;13.57;;;2.60;;
5961;SDS011;3007;50.770;0.250;2023-11-22T01:20:33;7.40;;;2.50;;
5961;SDS011;3007;50.770;0.250;2023-11-22T01:23:02;10.50;;;2.90;;
5961;SDS011;3007;50.770;0.250;2023-11-22T01:25:29;7.87;;;2.60;;
5961;SDS011;3007;50.770;0.250;2023-11-22T01:27:56;16.73;;;2.73;;
5961;SDS011;3007;50.770;0.250;2023-11-22T01:30:22;14.80;;;2.90;;
5961;SDS011;3007;50.770;0.250;2023-11-22T01:32:49;11.67;;;2.93;;
5961;SDS011;3007;50.770;0.250;2023-11-22T01:35:16;11.80;;;2.90;;
5961;SDS011;3007;50.770;0.250;2023-11-22T01:37:43;9.10;;;2.63;;
5961;SDS011;3007;50.770;0.250;2023-11-22T01:40:11;11.20;;;2.70;;
5961;SDS011;3007;50.770;0.250;2023-11-22T01:42:38;7.50;;;2.40;;
5961;SDS011;3007;50.770;0.250;2023-11-22T01:45:06;8.73;;;2.40;;
5961;SDS011;3007;50.770;0.250;2023-11-22T01:47:34;8.50;;;2.50;;
5961;SDS011;3007;50.770;0.250;2023-11-22T01:50:02;6.33;;;2.83;;
5961;SDS011;3007;50.770;0.250;2023-11-22T01:52:30;8.47;;;2.73;;
5961;SDS011;3007;50.770;0.250;2023-11-22T01:54:57;12.83;;;3.43;;
5961;SDS011;3007;50.770;0.250;2023-11-22T01:57:26;10.70;;;2.87;;
5961;SDS011;3007;50.770;0.250;2023-11-22T01:59:53;8.57;;;3.00;;
5961;SDS011;3007;50.770;0.250;2023-11-22T02:02:20;11.13;;;2.87;;
5961;SDS011;3007;50.770;0.250;2023-11-22T02:04:47;6.70;;;2.57;;
5961;SDS011;3007;50.770;0.250;2023-11-22T02:07:13;10.40;;;2.47;;
5961;SDS011;3007;50.770;0.250;2023-11-22T02:09:41;7.30;;;2.97;;
5961;SDS011;3007;50.770;0.250;2023-11-22T02:12:08;7.87;;;2.60;;
5961;SDS011;3007;50.770;0.250;2023-11-22T02:14:36;8.87;;;2.43;;
5961;SDS011;3007;50.770;0.250;2023-11-22T02:17:03;9.53;;;3.43;;
5961;SDS011;3007;50.770;0.250;2023-11-22T02:19:30;8.57;;;2.50;;
5961;SDS011;3007;50.770;0.250;2023-11-22T02:21:58;9.87;;;2.80;;
5961;SDS011;3007;50.770;0.250;2023-11-22T02:24:26;5.17;;;2.37;;
5961;SDS011;3007;50.770;0.250;2023-11-22T02:26:53;10.00;;;2.77;;
5961;SDS011;3007;50.770;0.250;2023-11-22T02:29:20;8.30;;;2.23;;
5961;SDS011;3007;50.770;0.250;2023-11-22T02:31:48;6.27;;;2.20;;
5961;SDS011;3007;50.770;0.250;2023-11-22T02:34:15;5.93;;;2.50;;
5961;SDS011;3007;50.770;0.250;2023-11-22T02:36:42;10.03;;;2.10;;
5961;SDS011;3007;50.770;0.250;2023-11-22T02:39:09;6.83;;;2.30;;
5961;SDS011;3007;50.770;0.250;2023-11-22T02:41:39;8.63;;;2.23;;
5961;SDS011;3007;50.770;0.250;2023-11-22T02:44:06;9.30;;;2.67;;
5961;SDS011;3007;50.770;0.250;2023-11-22T02:46:33;11.23;;;3.03;;
5961;SDS011;3007;50.770;0.250;2023-11-22T02:49:00;13.33;;;3.10;;
5961;SDS011;3007;50.770;0.250;2023-11-22T02:51:26;9.33;;;2.70;;
5961;SDS011;3007;50.770;0.250;2023-11-22T02:53:53;6.10;;;2.47;;
5961;SDS011;3007;50.770;0.250;2023-11-22T02:56:20;9.53;;;2.60;;
5961;SDS011;3007;50.770;0.250;2023-11-22T02:58:48;7.80;;;3.23;;
5961;SDS011;3007;50.770;0.250;2023-11-22T03:01:15;11.13;;;2.90;;
5961;SDS011;3007;50.770;0.250;2023-11-22T03:03:42;10.90;;;2.73;;
5961;SDS011;3007;50.770;0.250;2023-11-22T03:06:09;8.57;;;2.53;;
5961;SDS011;3007;50.770;0.250;2023-11-22T03:08:36;8.17;;;2.43;;
5961;SDS011;3007;50.770;0.250;2023-11-22T03:11:03;10.87;;;2.40;;
5961;SDS011;3007;50.770;0.250;2023-11-22T03:13:30;11.73;;;2.73;;
5961;SDS011;3007;50.770;0.250;2023-11-22T03:15:58;11.50;;;2.63;;
5961;SDS011;3007;50.770;0.250;2023-11-22T03:18:25;16.47;;;3.30;;
5961;SDS011;3007;50.770;0.250;2023-11-22T03:20:52;5.07;;;2.30;;
5961;SDS011;3007;50.770;0.250;2023-11-22T03:23:20;9.40;;;2.27;;
5961;SDS011;3007;50.770;0.250;2023-11-22T03:25:47;5.67;;;2.53;;
5961;SDS011;3007;50.770;0.250;2023-11-22T03:28:14;9.70;;;2.73;;
5961;SDS011;3007;50.770;0.250;2023-11-22T03:30:41;6.50;;;2.83;;
5961;SDS011;3007;50.770;0.250;2023-11-22T03:33:09;12.93;;;2.67;;
5961;SDS011;3007;50.770;0.250;2023-11-22T03:35:36;8.33;;;2.27;;
5961;SDS011;3007;50.770;0.250;2023-11-22T03:38:02;6.40;;;2.00;;
5961;SDS011;3007;50.770;0.250;2023-11-22T03:40:29;8.10;;;2.10;;
5961;SDS011;3007;50.770;0.250;2023-11-22T03:42:56;10.90;;;2.53;;
5961;SDS011;3007;50.770;0.250;2023-11-22T03:45:23;7.90;;;2.30;;
5961;SDS011;3007;50.770;0.250;2023-11-22T03:47:49;12.43;;;2.67;;
5961;SDS011;3007;50.770;0.250;2023-11-22T03:50:18;10.57;;;2.37;;
5961;SDS011;3007;50.770;0.250;2023-11-22T03:52:45;9.37;;;2.43;;
5961;SDS011;3007;50.770;0.250;2023-11-22T03:55:12;8.17;;;2.43;;
5961;SDS011;3007;50.770;0.250;2023-11-22T03:57:39;7.20;;;1.57;;
5961;SDS011;3007;50.770;0.250;2023-11-22T04:00:07;6.37;;;2.37;;
5961;SDS011;3007;50.770;0.250;2023-11-22T04:02:35;4.13;;;1.67;;
5961;SDS011;3007;50.770;0.250;2023-11-22T04:05:04;8.40;;;2.20;;
5961;SDS011;3007;50.770;0.250;2023-11-22T04:07:33;5.50;;;1.80;;
5961;SDS011;3007;50.770;0.250;2023-11-22T04:10:00;10.93;;;2.17;;
5961;SDS011;3007;50.770;0.250;2023-11-22T04:12:27;5.10;;;2.20;;
5961;SDS011;3007;50.770;0.250;2023-11-22T04:14:53;7.53;;;2.07;;
5961;SDS011;3007;50.770;0.250;2023-11-22T04:17:20;5.17;;;1.60;;
5961;SDS011;3007;50.770;0.250;2023-11-22T04:19:47;9.53;;;2.07;;
5961;SDS011;3007;50.770;0.250;2023-11-22T04:22:14;8.37;;;2.10;;
5961;SDS011;3007;50.770;0.250;2023-11-22T04:24:42;6.57;;;1.83;;
5961;SDS011;3007;50.770;0.250;2023-11-22T04:30:21;8.87;;;2.10;;
5961;SDS011;3007;50.770;0.250;2023-11-22T04:32:47;5.90;;;2.37;;
5961;SDS011;3007;50.770;0.250;2023-11-22T04:35:14;7.30;;;2.53;;
5961;SDS011;3007;50.770;0.250;2023-11-22T04:37:41;5.13;;;1.97;;
5961;SDS011;3007;50.770;0.250;2023-11-22T04:40:10;10.10;;;2.27;;
5961;SDS011;3007;50.770;0.250;2023-11-22T04:42:39;5.10;;;1.67;;
5961;SDS011;3007;50.770;0.250;2023-11-22T04:45:06;5.07;;;2.10;;
5961;SDS011;3007;50.770;0.250;2023-11-22T04:47:34;7.00;;;2.30;;
5961;SDS011;3007;50.770;0.250;2023-11-22T04:50:02;7.43;;;1.80;;
5961;SDS011;3007;50.770;0.250;2023-11-22T04:52:29;12.80;;;2.47;;
5961;SDS011;3007;50.770;0.250;2023-11-22T04:54:57;8.47;;;2.20;;
5961;SDS011;3007;50.770;0.250;2023-11-22T04:57:25;7.13;;;2.30;;
5961;SDS011;3007;50.770;0.250;2023-11-22T04:59:52;5.37;;;1.50;;
5961;SDS011;3007;50.770;0.250;2023-11-22T05:02:19;6.17;;;2.13;;
5961;SDS011;3007;50.770;0.250;2023-11-22T05:04:46;5.60;;;2.23;;
5961;SDS011;3007;50.770;0.250;2023-11-22T05:07:15;8.77;;;2.40;;
5961;SDS011;3007;50.770;0.250;2023-11-22T05:09:42;9.40;;;1.77;;
5961;SDS011;3007;50.770;0.250;2023-11-22T05:12:09;4.60;;;1.83;;
5961;SDS011;3007;50.770;0.250;2023-11-22T05:14:38;7.40;;;1.97;;
5961;SDS011;3007;50.770;0.250;2023-11-22T05:17:04;7.67;;;1.97;;
5961;SDS011;3007;50.770;0.250;2023-11-22T05:19:32;11.90;;;2.13;;
5961;SDS011;3007;50.770;0.250;2023-11-22T05:21:59;13.00;;;2.13;;
5961;SDS011;3007;50.770;0.250;2023-11-22T05:24:26;5.83;;;2.07;;
5961;SDS011;3007;50.770;0.250;2023-11-22T05:26:52;8.07;;;2.30;;
5961;SDS011;3007;50.770;0.250;2023-11-22T05:29:19;9.60;;;2.10;;
5961;SDS011;3007;50.770;0.250;2023-11-22T05:31:48;8.93;;;1.83;;
5961;SDS011;3007;50.770;0.250;2023-11-22T05:34:14;2.93;;;1.63;;
5961;SDS011;3007;50.770;0.250;2023-11-22T05:36:41;7.17;;;2.10;;
5961;SDS011;3007;50.770;0.250;2023-11-22T05:39:08;11.37;;;3.87;;
5961;SDS011;3007;50.770;0.250;2023-11-22T05:41:37;9.87;;;2.33;;
5961;SDS011;3007;50.770;0.250;2023-11-22T05:44:04;10.03;;;2.47;;
5961;SDS011;3007;50.770;0.250;2023-11-22T05:46:31;8.53;;;2.47;;
5961;SDS011;3007;50.770;0.250;2023-11-22T05:48:59;5.70;;;2.37;;
5961;SDS011;3007;50.770;0.250;2023-11-22T05:51:26;6.10;;;1.70;;
5961;SDS011;3007;50.770;0.250;2023-11-22T05:53:53;5.93;;;2.00;;
5961;SDS011;3007;50.770;0.250;2023-11-22T05:56:20;6.40;;;2.10;;
5961;SDS011;3007;50.770;0.250;2023-11-22T05:58:46;4.07;;;1.73;;
5961;SDS011;3007;50.770;0.250;2023-11-22T06:01:13;8.10;;;2.47;;
5961;SDS011;3007;50.770;0.250;2023-11-22T06:03:40;3.93;;;1.60;;
5961;SDS011;3007;50.770;0.250;2023-11-22T06:06:08;6.60;;;2.40;;
5961;SDS011;3007;50.770;0.250;2023-11-22T06:08:35;6.13;;;1.80;;
5961;SDS011;3007;50.770;0.250;2023-11-22T06:11:02;5.87;;;2.13;;
5961;SDS011;3007;50.770;0.250;2023-11-22T06:13:29;6.50;;;1.83;;
5961;SDS011;3007;50.770;0.250;2023-11-22T06:15:56;6.57;;;1.67;;
5961;SDS011;3007;50.770;0.250;2023-11-22T06:18:23;5.20;;;1.57;;
5961;SDS011;3007;50.770;0.250;2023-11-22T06:20:54;5.90;;;1.80;;
5961;SDS011;3007;50.770;0.250;2023-11-22T06:23:23;7.23;;;1.83;;
5961;SDS011;3007;50.770;0.250;2023-11-22T06:25:49;3.80;;;1.33;;
5961;SDS011;3007;50.770;0.250;2023-11-22T06:28:16;4.97;;;1.63;;
5961;SDS011;3007;50.770;0.250;2023-11-22T06:30:44;5.13;;;1.70;;
5961;SDS011;3007;50.770;0.250;2023-11-22T06:33:10;5.23;;;2.00;;
5961;SDS011;3007;50.770;0.250;2023-11-22T06:35:37;4.53;;;1.60;;
5961;SDS011;3007;50.770;0.250;2023-11-22T06:38:05;4.03;;;1.50;;
5961;SDS011;3007;50.770;0.250;2023-11-22T06:40:33;6.50;;;2.33;;
5961;SDS011;3007;50.770;0.250;2023-11-22T06:43:00;6.70;;;1.30;;
5961;SDS011;3007;50.770;0.250;2023-11-22T06:45:29;6.20;;;2.00;;
5961;SDS011;3007;50.770;0.250;2023-11-22T06:47:56;3.63;;;1.67;;
5961;SDS011;3007;50.770;0.250;2023-11-22T06:50:24;6.20;;;1.70;;
5961;SDS011;3007;50.770;0.250;2023-11-22T06:52:50;6.03;;;1.57;;
5961;SDS011;3007;50.770;0.250;2023-11-22T06:55:18;8.67;;;1.70;;
5961;SDS011;3007;50.770;0.250;2023-11-22T06:57:46;8.77;;;1.40;;
5961;SDS011;3007;50.770;0.250;2023-11-22T07:00:13;5.33;;;1.77;;
5961;SDS011;3007;50.770;0.250;2023-11-22T07:02:41;7.67;;;1.70;;
5961;SDS011;3007;50.770;0.250;2023-11-22T07:05:08;5.43;;;2.10;;
5961;SDS011;3007;50.770;0.250;2023-11-22T07:07:35;8.20;;;2.00;;
5961;SDS011;3007;50.770;0.250;2023-11-22T07:10:03;3.67;;;1.47;;
5961;SDS011;3007;50.770;0.250;2023-11-22T07:12:32;4.17;;;1.50;;
5961;SDS011;3007;50.770;0.250;2023-11-22T07:15:02;4.87;;;1.50;;
5961;SDS011;3007;50.770;0.250;2023-11-22T07:17:30;6.67;;;1.73;;
5961;SDS011;3007;50.770;0.250;2023-11-22T07:19:58;5.10;;;1.70;;
5961;SDS011;3007;50.770;0.250;2023-11-22T07:22:26;5.60;;;1.90;;
5961;SDS011;3007;50.770;0.250;2023-11-22T07:24:53;6.03;;;1.93;;
5961;SDS011;3007;50.770;0.250;2023-11-22T07:27:20;4.20;;;1.40;;
5961;SDS011;3007;50.770;0.250;2023-11-22T07:29:47;5.70;;;1.63;;
5961;SDS011;3007;50.770;0.250;2023-11-22T07:32:18;4.72;;;1.80;;
5961;SDS011;3007;50.770;0.250;2023-11-22T07:34:46;2.87;;;1.30;;
5961;SDS011;3007;50.770;0.250;2023-11-22T07:37:13;4.43;;;1.50;;
5961;SDS011;3007;50.770;0.250;2023-11-22T07:39:40;5.23;;;1.40;;
5961;SDS011;3007;50.770;0.250;2023-11-22T07:42:08;4.10;;;1.67;;
5961;SDS011;3007;50.770;0.250;2023-11-22T07:44:35;4.57;;;1.33;;
5961;SDS011;3007;50.770;0.250;2023-11-22T07:47:03;2.40;;;1.27;;
5961;SDS011;3007;50.770;0.250;2023-11-22T07:49:34;2.80;;;1.10;;
5961;SDS011;3007;50.770;0.250;2023-11-22T07:52:02;3.27;;;1.00;;
5961;SDS011;3007;50.770;0.250;2023-11-22T07:54:30;4.15;;;1.50;;
5961;SDS011;3007;50.770;0.250;2023-11-22T07:56:56;4.50;;;1.57;;
5961;SDS011;3007;50.770;0.250;2023-11-22T07:59:23;4.97;;;1.45;;
5961;SDS011;3007;50.770;0.250;2023-11-22T08:01:50;4.23;;;1.30;;
5961;SDS011;3007;50.770;0.250;2023-11-22T08:04:18;3.60;;;1.00;;
5961;SDS011;3007;50.770;0.250;2023-11-22T08:06:46;6.80;;;1.30;;
5961;SDS011;3007;50.770;0.250;2023-11-22T08:09:14;3.70;;;1.20;;
5961;SDS011;3007;50.770;0.250;2023-11-22T08:11:41;5.27;;;1.60;;
5961;SDS011;3007;50.770;0.250;2023-11-22T08:14:08;4.37;;;1.40;;
5961;SDS011;3007;50.770;0.250;2023-11-22T08:16:38;4.70;;;1.13;;
5961;SDS011;3007;50.770;0.250;2023-11-22T08:19:07;3.13;;;1.10;;
5961;SDS011;3007;50.770;0.250;2023-11-22T08:21:34;3.57;;;1.00;;
5961;SDS011;3007;50.770;0.250;2023-11-22T08:24:03;5.83;;;1.30;;
5961;SDS011;3007;50.770;0.250;2023-11-22T08:26:30;5.17;;;1.20;;
5961;SDS011;3007;50.770;0.250;2023-11-22T08:28:57;4.17;;;1.30;;
5961;SDS011;3007;50.770;0.250;2023-11-22T08:31:24;4.13;;;1.60;;
5961;SDS011;3007;50.770;0.250;2023-11-22T08:33:51;3.80;;;1.60;;
5961;SDS011;3007;50.770;0.250;2023-11-22T08:36:17;6.07;;;1.30;;
5961;SDS011;3007;50.770;0.250;2023-11-22T08:38:44;4.53;;;1.30;;
5961;SDS011;3007;50.770;0.250;2023-11-22T08:41:12;3.90;;;1.17;;
5961;SDS011;3007;50.770;0.250;2023-11-22T08:43:39;4.20;;;1.10;;
5961;SDS011;3007;50.770;0.250;2023-11-22T08:46:06;4.97;;;1.30;;
5961;SDS011;3007;50.770;0.250;2023-11-22T08:48:33;4.30;;;1.33;;
5961;SDS011;3007;50.770;0.250;2023-11-22T08:51:01;4.93;;;1.60;;
5961;SDS011;3007;50.770;0.250;2023-11-22T08:53:29;6.37;;;1.30;;
5961;SDS011;3007;50.770;0.250;2023-11-22T08:55:56;5.97;;;1.30;;
5961;SDS011;3007;50.770;0.250;2023-11-22T08:58:24;3.83;;;1.47;;
5961;SDS011;3007;50.770;0.250;2023-11-22T09:00:52;7.00;;;2.27;;
5961;SDS011;3007;50.770;0.250;2023-11-22T09:03:19;7.10;;;2.53;;
5961;SDS011;3007;50.770;0.250;2023-11-22T09:05:46;6.97;;;2.33;;
5961;SDS011;3007;50.770;0.250;2023-11-22T09:08:14;5.83;;;2.53;;
5961;SDS011;3007;50.770;0.250;2023-11-22T09:10:41;7.00;;;2.47;;
5961;SDS011;3007;50.770;0.250;2023-11-22T09:13:08;10.60;;;2.73;;
5961;SDS011;3007;50.770;0.250;2023-11-22T09:15:37;6.47;;;2.73;;
5961;SDS011;3007;50.770;0.250;2023-11-22T09:18:04;8.40;;;2.93;;
5961;SDS011;3007;50.770;0.250;2023-11-22T09:20:31;7.50;;;2.77;;
5961;SDS011;3007;50.770;0.250;2023-11-22T09:22:58;5.70;;;2.47;;
5961;SDS011;3007;50.770;0.250;2023-11-22T09:25:25;10.30;;;2.83;;
5961;SDS011;3007;50.770;0.250;2023-11-22T09:27:53;4.20;;;2.20;;
5961;SDS011;3007;50.770;0.250;2023-11-22T09:30:24;7.97;;;2.40;;
5961;SDS011;3007;50.770;0.250;2023-11-22T09:33:04;5.93;;;2.67;;
5961;SDS011;3007;50.770;0.250;2023-11-22T09:35:32;6.67;;;2.63;;
5961;SDS011;3007;50.770;0.250;2023-11-22T09:38:00;6.53;;;2.40;;
5961;SDS011;3007;50.770;0.250;2023-11-22T09:40:28;6.10;;;2.47;;
5961;SDS011;3007;50.770;0.250;2023-11-22T09:42:56;5.33;;;2.60;;
5961;SDS011;3007;50.770;0.250;2023-11-22T09:45:24;7.30;;;2.30;;
5961;SDS011;3007;50.770;0.250;2023-11-22T09:47:51;6.30;;;2.60;;
5961;SDS011;3007;50.770;0.250;2023-11-22T09:50:21;6.23;;;2.60;;
5961;SDS011;3007;50.770;0.250;2023-11-22T09:52:54;6.00;;;2.37;;
5961;SDS011;3007;50.770;0.250;2023-11-22T09:55:27;9.60;;;2.30;;
5961;SDS011;3007;50.770;0.250;2023-11-22T09:57:55;3.93;;;1.73;;
5961;SDS011;3007;50.770;0.250;2023-11-22T10:00:25;6.17;;;2.10;;
5961;SDS011;3007;50.770;0.250;2023-11-22T10:02:55;5.50;;;1.77;;
5961;SDS011;3007;50.770;0.250;2023-11-22T10:05:23;4.97;;;1.63;;
5961;SDS011;3007;50.770;0.250;2023-11-22T10:07:53;4.50;;;1.93;;
5961;SDS011;3007;50.770;0.250;2023-11-22T10:10:21;5.23;;;2.27;;
5961;SDS011;3007;50.770;0.250;2023-11-22T10:12:52;4.60;;;1.60;;
5961;SDS011;3007;50.770;0.250;2023-11-22T10:15:22;4.23;;;1.70;;
5961;SDS011;3007;50.770;0.250;2023-11-22T10:17:53;5.93;;;1.70;;
5961;SDS011;3007;50.770;0.250;2023-11-22T10:20:23;4.33;;;1.40;;
5961;SDS011;3007;50.770;0.250;2023-11-22T10:22:51;5.83;;;1.67;;
5961;SDS011;3007;50.770;0.250;2023-11-22T10:25:19;5.83;;;1.70;;
5961;SDS011;3007;50.770;0.250;2023-11-22T10:27:48;6.90;;;1.77;;
5961;SDS011;3007;50.770;0.250;2023-11-22T10:30:16;7.20;;;1.60;;
5961;SDS011;3007;50.770;0.250;2023-11-22T10:32:43;5.37;;;1.60;;
5961;SDS011;3007;50.770;0.250;2023-11-22T10:35:11;3.80;;;1.73;;
5961;SDS011;3007;50.770;0.250;2023-11-22T10:37:42;3.10;;;1.50;;
5961;SDS011;3007;50.770;0.250;2023-11-22T10:40:11;2.93;;;1.30;;
5961;SDS011;3007;50.770;0.250;2023-11-22T10:42:40;3.20;;;1.13;;
5961;SDS011;3007;50.770;0.250;2023-11-22T10:45:08;2.80;;;1.20;;
5961;SDS011;3007;50.770;0.250;2023-11-22T10:47:36;5.27;;;1.73;;
5961;SDS011;3007;50.770;0.250;2023-11-22T10:50:07;2.33;;;0.97;;
5961;SDS011;3007;50.770;0.250;2023-11-22T10:52:35;3.47;;;1.50;;
5961;SDS011;3007;50.770;0.250;2023-11-22T10:55:04;3.47;;;1.60;;
5961;SDS011;3007;50.770;0.250;2023-11-22T10:57:32;2.63;;;1.37;;
5961;SDS011;3007;50.770;0.250;2023-11-22T11:00:03;2.93;;;1.40;;
5961;SDS011;3007;50.770;0.250;2023-11-22T11:02:33;9.40;;;1.60;;
5961;SDS011;3007;50.770;0.250;2023-11-22T11:05:09;3.47;;;1.80;;
5961;SDS011;3007;50.770;0.250;2023-11-22T11:07:43;4.27;;;2.07;;
5961;SDS011;3007;50.770;0.250;2023-11-22T11:10:18;4.17;;;1.90;;
5961;SDS011;3007;50.770;0.250;2023-11-22T11:12:47;6.33;;;1.87;;
5961;SDS011;3007;50.770;0.250;2023-11-22T11:15:14;3.17;;;1.50;;
5961;SDS011;3007;50.770;0.250;2023-11-22T11:17:43;3.30;;;1.70;;
5961;SDS011;3007;50.770;0.250;2023-11-22T11:20:13;4.90;;;1.60;;
5961;SDS011;3007;50.770;0.250;2023-11-22T11:22:42;3.97;;;1.40;;
5961;SDS011;3007;50.770;0.250;2023-11-22T11:25:13;2.83;;;1.10;;
5961;SDS011;3007;50.770;0.250;2023-11-22T11:27:43;2.97;;;1.30;;
5961;SDS011;3007;50.770;0.250;2023-11-22T11:33:14;2.23;;;1.20;;
5961;SDS011;3007;50.770;0.250;2023-11-22T11:35:44;4.97;;;1.50;;
5961;SDS011;3007;50.770;0.250;2023-11-22T11:38:13;3.77;;;1.63;;
5961;SDS011;3007;50.770;0.250;2023-11-22T11:40:41;5.83;;;1.60;;
5961;SDS011;3007;50.770;0.250;2023-11-22T11:43:10;3.87;;;1.40;;
5961;SDS011;3007;50.770;0.250;2023-11-22T11:45:38;2.00;;;1.60;;
5961;SDS011;3007;50.770;0.250;2023-11-22T11:48:10;6.23;;;1.70;;
5961;SDS011;3007;50.770;0.250;2023-11-22T11:50:40;8.10;;;1.97;;
5961;SDS011;3007;50.770;0.250;2023-11-22T11:53:07;8.07;;;1.73;;
5961;SDS011;3007;50.770;0.250;2023-11-22T11:55:35;7.80;;;2.20;;
5961;SDS011;3007;50.770;0.250;2023-11-22T11:58:05;5.93;;;1.67;;
5961;SDS011;3007;50.770;0.250;2023-11-22T12:00:35;5.03;;;1.60;;
5961;SDS011;3007;50.770;0.250;2023-11-22T12:03:05;4.20;;;1.67;;
5961;SDS011;3007;50.770;0.250;2023-11-22T12:05:34;4.43;;;1.40;;
5961;SDS011;3007;50.770;0.250;2023-11-22T12:08:01;5.43;;;1.60;;
5961;SDS011;3007;50.770;0.250;2023-11-22T12:10:28;3.53;;;1.70;;
5961;SDS011;3007;50.770;0.250;2023-11-22T12:12:55;3.77;;;1.63;;
5961;SDS011;3007;50.770;0.250;2023-11-22T12:15:23;5.33;;;1.50;;
5961;SDS011;3007;50.770;0.250;2023-11-22T12:17:52;5.33;;;1.60;;
5961;SDS011;3007;50.770;0.250;2023-11-22T12:20:22;4.90;;;1.80;;
5961;SDS011;3007;50.770;0.250;2023-11-22T12:22:51;3.53;;;1.57;;
5961;SDS011;3007;50.770;0.250;2023-11-22T12:25:18;4.97;;;1.93;;
5961;SDS011;3007;50.770;0.250;2023-11-22T12:27:46;5.57;;;1.53;;
5961;SDS011;3007;50.770;0.250;2023-11-22T12:30:27;4.10;;;1.40;;
5961;SDS011;3007;50.770;0.250;2023-11-22T12:32:57;3.73;;;1.50;;
5961;SDS011;3007;50.770;0.250;2023-11-22T12:35:27;4.93;;;1.80;;
5961;SDS011;3007;50.770;0.250;2023-11-22T12:37:54;2.70;;;1.20;;
5961;SDS011;3007;50.770;0.250;2023-11-22T12:40:21;3.83;;;1.63;;
5961;SDS011;3007;50.770;0.250;2023-11-22T12:42:48;4.43;;;1.77;;
5961;SDS011;3007;50.770;0.250;2023-11-22T12:45:19;3.40;;;1.07;;
5961;SDS011;3007;50.770;0.250;2023-11-22T12:47:48;3.10;;;1.40;;
5961;SDS011;3007;50.770;0.250;2023-11-22T12:50:33;5.80;;;1.27;;
5961;SDS011;3007;50.770;0.250;2023-11-22T12:53:09;4.30;;;1.27;;
5961;SDS011;3007;50.770;0.250;2023-11-22T12:55:37;5.50;;;1.13;;
5961;SDS011;3007;50.770;0.250;2023-11-22T12:58:04;4.40;;;1.17;;
5961;SDS011;3007;50.770;0.250;2023-11-22T13:00:32;5.03;;;1.27;;
5961;SDS011;3007;50.770;0.250;2023-11-22T13:02:59;7.23;;;1.20;;
5961;SDS011;3007;50.770;0.250;2023-11-22T13:05:26;5.40;;;1.50;;
5961;SDS011;3007;50.770;0.250;2023-11-22T13:07:54;3.90;;;1.10;;
5961;SDS011;3007;50.770;0.250;2023-11-22T13:10:21;2.63;;;1.17;;
5961;SDS011;3007;50.770;0.250;2023-11-22T13:12:51;2.67;;;0.90;;
5961;SDS011;3007;50.770;0.250;2023-11-22T13:15:19;3.80;;;1.20;;
5961;SDS011;3007;50.770;0.250;2023-11-22T13:17:48;2.93;;;1.20;;
5961;SDS011;3007;50.770;0.250;2023-11-22T13:20:18;4.33;;;1.10;;
5961;SDS011;3007;50.770;0.250;2023-11-22T13:22:47;5.10;;;1.17;;
5961;SDS011;3007;50.770;0.250;2023-11-22T13:25:16;3.23;;;1.40;;
5961;SDS011;3007;50.770;0.250;2023-11-22T13:27:44;5.00;;;1.33;;
5961;SDS011;3007;50.770;0.250;2023-11-22T13:30:12;4.37;;;1.60;;
5961;SDS011;3007;50.770;0.250;2023-11-22T13:32:40;5.20;;;1.70;;
5961;SDS011;3007;50.770;0.250;2023-11-22T13:35:09;3.53;;;1.50;;
5961;SDS011;3007;50.770;0.250;2023-11-22T13:37:40;3.13;;;1.70;;
5961;SDS011;3007;50.770;0.250;2023-11-22T13:40:09;5.10;;;1.23;;
5961;SDS011;3007;50.770;0.250;2023-11-22T13:42:41;4.20;;;1.40;;
5961;SDS011;3007;50.770;0.250;2023-11-22T13:45:09;5.17;;;1.20;;
5961;SDS011;3007;50.770;0.250;2023-11-22T13:47:40;2.40;;;1.20;;
5961;SDS011;3007;50.770;0.250;2023-11-22T13:50:09;1.83;;;1.00;;
5961;SDS011;3007;50.770;0.250;2023-11-22T13:52:41;3.63;;;1.23;;
5961;SDS011;3007;50.770;0.250;2023-11-22T13:55:13;3.17;;;1.20;;
5961;SDS011;3007;50.770;0.250;2023-11-22T13:57:44;4.23;;;1.20;;
5961;SDS011;3007;50.770;0.250;2023-11-22T14:00:11;5.50;;;1.17;;
5961;SDS011;3007;50.770;0.250;2023-11-22T14:02:43;7.13;;;1.47;;
5961;SDS011;3007;50.770;0.250;2023-11-22T14:05:10;2.90;;;1.03;;
5961;SDS011;3007;50.770;0.250;2023-11-22T14:07:37;6.63;;;1.67;;
5961;SDS011;3007;50.770;0.250;2023-11-22T14:10:05;1.90;;;1.00;;
5961;SDS011;3007;50.770;0.250;2023-11-22T14:12:32;3.63;;;1.20;;
5961;SDS011;3007;50.770;0.250;2023-11-22T14:15:01;2.60;;;1.37;;
5961;SDS011;3007;50.770;0.250;2023-11-22T14:17:30;2.87;;;1.30;;
5961;SDS011;3007;50.770;0.250;2023-11-22T14:19:57;3.00;;;1.33;;
5961;SDS011;3007;50.770;0.250;2023-11-22T14:22:24;7.63;;;1.20;;
5961;SDS011;3007;50.770;0.250;2023-11-22T14:24:52;3.00;;;1.23;;
5961;SDS011;3007;50.770;0.250;2023-11-22T14:27:19;4.37;;;1.53;;
5961;SDS011;3007;50.770;0.250;2023-11-22T14:29:46;4.20;;;1.20;;
5961;SDS011;3007;50.770;0.250;2023-11-22T14:32:16;3.60;;;1.13;;
5961;SDS011;3007;50.770;0.250;2023-11-22T14:34:46;4.20;;;1.37;;
5961;SDS011;3007;50.770;0.250;2023-11-22T14:37:12;6.53;;;1.57;;
5961;SDS011;3007;50.770;0.250;2023-11-22T14:39:40;6.93;;;1.90;;
5961;SDS011;3007;50.770;0.250;2023-11-22T14:42:07;3.00;;;1.30;;
5961;SDS011;3007;50.770;0.250;2023-11-22T14:44:34;4.23;;;1.17;;
5961;SDS011;3007;50.770;0.250;2023-11-22T14:47:01;4.77;;;1.37;;
5961;SDS011;3007;50.770;0.250;2023-11-22T14:49:32;5.20;;;1.40;;
5961;SDS011;3007;50.770;0.250;2023-11-22T14:51:59;5.40;;;1.50;;
5961;SDS011;3007;50.770;0.250;2023-11-22T14:54:26;3.70;;;1.47;;
5961;SDS011;3007;50.770;0.250;2023-11-22T14:56:53;6.80;;;1.60;;
5961;SDS011;3007;50.770;0.250;2023-11-22T14:59:23;5.73;;;1.40;;
5961;SDS011;3007;50.770;0.250;2023-11-22T15:01:51;4.30;;;1.70;;
5961;SDS011;3007;50.770;0.250;2023-11-22T15:04:18;5.53;;;1.40;;
5961;SDS011;3007;50.770;0.250;2023-11-22T15:06:46;5.67;;;1.60;;
5961;SDS011;3007;50.770;0.250;2023-11-22T15:09:14;3.17;;;1.50;;
5961;SDS011;3007;50.770;0.250;2023-11-22T15:11:41;4.87;;;1.53;;
5961;SDS011;3007;50.770;0.250;2023-11-22T15:14:08;7.73;;;1.70;;
5961;SDS011;3007;50.770;0.250;2023-11-22T15:16:36;7.47;;;1.60;;
5961;SDS011;3007;50.770;0.250;2023-11-22T15:19:03;6.50;;;1.70;;
5961;SDS011;3007;50.770;0.250;2023-11-22T15:21:31;6.70;;;1.80;;
5961;SDS011;3007;50.770;0.250;2023-11-22T15:24:00;12.63;;;1.50;;